Startpagina
METAR-TAF:

METAR-TAF

Vliegvelden :

Rarotonga, Cookeilanden

breedte: 21-12S, lengte: 159-49W, hoogte: 7 m

Actueel weer

Dit bericht is 24 minuten geleden gemaakt, om 02:00 UTC
Wind 12 kt uit het oostzuidoosten
Temperatuur 25°C
Vochtigheid 69%
Druk 1018 hPa
Zicht 10 km of meer
Verspreide wolken op 2200 ft
Gebroken wolken op 6000 ft

METAR: NCRG 270200Z 11012KT 9999 SCT022 BKN060 25/19 Q1018 RESHRA

Tijdstip: 16:24 (02:24 UTC)

Verwachting

Dit bericht is 3 uur en het 7 minuten geleden gemaakt, om 23:17 UTC
Verwachting geldig van 27 om 00 UTC tot 27 om 24 UTC
Wind 12 kt uit het oostzuidoosten
Zicht 10 km of meer
Verspreide wolken op 1800 ft
Gebroken wolken op 10000 ft
Kans 30% :
Tijdelijke
van 27 om 00 UTC tot 27 om 10 UTC
Wind 15 kt uit het oostzuidoosten met uitschieters tot 25 kt

TAF: NCRG 262317Z 2700/2724 12012KT 9999 SCT018 BKN100 PROB30 TEMPO 2700/2710 12015G25KT

Waarnemingen en weersverwachtingen van meer dan 4000 vliegvelden (METAR en TAF).

De beschikbare stations zijn de gele en rode punten op de kaart.

Ga met uw muis naar het station om de naam te zien.

Klik dan om waarnemingen en weersverwachtingen te zien.

kaart wijzigen: klik op de groene knoppen met een zwart kruis om in te zoomen, op de groene knop met een streepje om uit te zoomen of op de groene pijlen voor aangrenzende kaarten.


METAR-TAF: